N216TB KMSY-KPNS
Flight info
| Callsign | N216TB |
|---|---|
| Flight time | 0h 43m |
| Altitude | 5000 |
| Route | DCT GPT DCT SJI DCT LOXLY DCT PENSI DCT WABEN DCT BRENT DCT |
| Aircraft | B58/L-L/C |
Departure
| Time | 2026-04-25 23:10 |
|---|---|
| Airport | Louis Armstrong New Orleans International Airport (KMSY) |
Arrival
| Time | 2026-04-25 23:53 |
|---|---|
| Airport | Pensacola International Airport (KPNS) |
| Time | Latitude | Longitude | Altitude | Speed | Heading |
|---|---|---|---|---|---|
| 2026-04-25 23:00 | 29.99181 | -90.27194 | 7 ft | 0 kts | 16° |
| 2026-04-25 23:07 | 29.99185 | -90.27192 | 7 ft | 4 kts | 16° |
| 2026-04-25 23:08 | 29.99216 | -90.27165 | 7 ft | 0 kts | 77° |
| 2026-04-25 23:08 | 29.99223 | -90.27145 | 8 ft | 9 kts | 45° |
| 2026-04-25 23:08 | 29.99260 | -90.27136 | 8 ft | 1 kts | 8° |
| 2026-04-25 23:08 | 29.99286 | -90.27131 | 9 ft | 10 kts | 9° |
| 2026-04-25 23:09 | 29.99302 | -90.27128 | 9 ft | 0 kts | 12° |
| 2026-04-25 23:09 | 29.99336 | -90.27119 | 10 ft | 12 kts | 15° |
| 2026-04-25 23:09 | 29.99383 | -90.27010 | 9 ft | 23 kts | 108° |
| 2026-04-25 23:09 | 29.99329 | -90.26781 | 12 ft | 64 kts | 105° |
| 2026-04-25 23:10 | 29.99081 | -90.25822 | 70 ft | 114 kts | 102° |
| 2026-04-25 23:10 | 29.98965 | -90.25198 | 236 ft | 132 kts | 95° |
| 2026-04-25 23:10 | 29.98839 | -90.24041 | 639 ft | 158 kts | 94° |
| 2026-04-25 23:10 | 29.98787 | -90.22716 | 1115 ft | 172 kts | 91° |
| 2026-04-25 23:11 | 29.99016 | -90.21339 | 1657 ft | 183 kts | 60° |
| 2026-04-25 23:11 | 29.99964 | -90.20350 | 2201 ft | 187 kts | 33° |
| 2026-04-25 23:11 | 30.01051 | -90.19495 | 2707 ft | 192 kts | 38° |
| 2026-04-25 23:11 | 30.01981 | -90.18376 | 3195 ft | 195 kts | 56° |
| 2026-04-25 23:12 | 30.02577 | -90.16971 | 3693 ft | 196 kts | 69° |
| 2026-04-25 23:12 | 30.03038 | -90.15502 | 4205 ft | 198 kts | 71° |
| 2026-04-25 23:12 | 30.03542 | -90.14005 | 4750 ft | 202 kts | 68° |
| 2026-04-25 23:12 | 30.04083 | -90.12505 | 5252 ft | 204 kts | 67° |
| 2026-04-25 23:13 | 30.04629 | -90.10981 | 5768 ft | 206 kts | 67° |
| 2026-04-25 23:13 | 30.05174 | -90.09441 | 6289 ft | 209 kts | 67° |
| 2026-04-25 23:13 | 30.05727 | -90.07878 | 6792 ft | 211 kts | 67° |
| 2026-04-25 23:13 | 30.06287 | -90.06296 | 7276 ft | 214 kts | 67° |
| 2026-04-25 23:14 | 30.06854 | -90.04693 | 7788 ft | 217 kts | 67° |
| 2026-04-25 23:14 | 30.07421 | -90.03090 | 8282 ft | 220 kts | 67° |
| 2026-04-25 23:14 | 30.08000 | -90.01451 | 8800 ft | 223 kts | 67° |
| 2026-04-25 23:14 | 30.08588 | -89.99785 | 9329 ft | 225 kts | 67° |
| 2026-04-25 23:15 | 30.09185 | -89.98095 | 9854 ft | 228 kts | 66° |
| 2026-04-25 23:15 | 30.09786 | -89.96391 | 10338 ft | 231 kts | 66° |
| 2026-04-25 23:15 | 30.10397 | -89.94660 | 10836 ft | 234 kts | 66° |
| 2026-04-25 23:15 | 30.11014 | -89.92909 | 11332 ft | 236 kts | 66° |
| 2026-04-25 23:16 | 30.11635 | -89.91145 | 11842 ft | 238 kts | 65° |
| 2026-04-25 23:16 | 30.12261 | -89.89369 | 12359 ft | 240 kts | 65° |
| 2026-04-25 23:16 | 30.12884 | -89.87600 | 12874 ft | 242 kts | 65° |
| 2026-04-25 23:16 | 30.13519 | -89.85794 | 13405 ft | 244 kts | 65° |
| 2026-04-25 23:17 | 30.14160 | -89.83970 | 13916 ft | 246 kts | 65° |
| 2026-04-25 23:17 | 30.14800 | -89.82147 | 14392 ft | 243 kts | 64° |
| 2026-04-25 23:17 | 30.15437 | -89.80335 | 14831 ft | 245 kts | 64° |
| 2026-04-25 23:17 | 30.16093 | -89.78473 | 14996 ft | 258 kts | 64° |
| 2026-04-25 23:18 | 30.16785 | -89.76503 | 15014 ft | 270 kts | 65° |
| 2026-04-25 23:18 | 30.17496 | -89.74468 | 15013 ft | 276 kts | 65° |
| 2026-04-25 23:18 | 30.18211 | -89.72424 | 15003 ft | 279 kts | 65° |
| 2026-04-25 23:18 | 30.18941 | -89.70338 | 15010 ft | 280 kts | 65° |
| 2026-04-25 23:19 | 30.19674 | -89.68246 | 15006 ft | 281 kts | 65° |
| 2026-04-25 23:19 | 30.20406 | -89.66151 | 15005 ft | 281 kts | 65° |
| 2026-04-25 23:19 | 30.21139 | -89.64056 | 15007 ft | 281 kts | 65° |
| 2026-04-25 23:19 | 30.21872 | -89.61959 | 15006 ft | 281 kts | 65° |
| 2026-04-25 23:20 | 30.22604 | -89.59863 | 15007 ft | 281 kts | 65° |
| 2026-04-25 23:20 | 30.23335 | -89.57768 | 15009 ft | 281 kts | 65° |
| 2026-04-25 23:20 | 30.24065 | -89.55673 | 15015 ft | 281 kts | 65° |
| 2026-04-25 23:20 | 30.24794 | -89.53583 | 15011 ft | 279 kts | 65° |
| 2026-04-25 23:21 | 30.25510 | -89.51527 | 15010 ft | 279 kts | 65° |
| 2026-04-25 23:21 | 30.26234 | -89.49449 | 15011 ft | 279 kts | 65° |
| 2026-04-25 23:21 | 30.26956 | -89.47373 | 15014 ft | 278 kts | 65° |
| 2026-04-25 23:21 | 30.27679 | -89.45294 | 15013 ft | 278 kts | 65° |
| 2026-04-25 23:22 | 30.28400 | -89.43218 | 15012 ft | 278 kts | 65° |
| 2026-04-25 23:22 | 30.29120 | -89.41145 | 15015 ft | 278 kts | 65° |
| 2026-04-25 23:22 | 30.29841 | -89.39069 | 15014 ft | 278 kts | 65° |
| 2026-04-25 23:23 | 30.31269 | -89.34951 | 15010 ft | 278 kts | 65° |
| 2026-04-25 23:23 | 30.31987 | -89.32879 | 15009 ft | 278 kts | 65° |
| 2026-04-25 23:23 | 30.32705 | -89.30807 | 15014 ft | 277 kts | 65° |
| 2026-04-25 23:23 | 30.33422 | -89.28733 | 15010 ft | 277 kts | 65° |
| 2026-04-25 23:24 | 30.34140 | -89.26659 | 15009 ft | 277 kts | 65° |
| 2026-04-25 23:24 | 30.34856 | -89.24586 | 15007 ft | 277 kts | 65° |
| 2026-04-25 23:24 | 30.35573 | -89.22511 | 15006 ft | 277 kts | 65° |
| 2026-04-25 23:24 | 30.36289 | -89.20438 | 15014 ft | 277 kts | 65° |
| 2026-04-25 23:25 | 30.37004 | -89.18366 | 15014 ft | 277 kts | 65° |
| 2026-04-25 23:25 | 30.37709 | -89.16320 | 15013 ft | 277 kts | 64° |
| 2026-04-25 23:25 | 30.38424 | -89.14246 | 15012 ft | 277 kts | 65° |
| 2026-04-25 23:25 | 30.39137 | -89.12174 | 15015 ft | 277 kts | 65° |
| 2026-04-25 23:26 | 30.39850 | -89.10105 | 15012 ft | 277 kts | 65° |
| 2026-04-25 23:26 | 30.40564 | -89.08031 | 15016 ft | 276 kts | 64° |
| 2026-04-25 23:26 | 30.41403 | -89.06042 | 15013 ft | 274 kts | 58° |
| 2026-04-25 23:26 | 30.42296 | -89.04088 | 15016 ft | 275 kts | 58° |
| 2026-04-25 23:27 | 30.43180 | -89.02127 | 15016 ft | 275 kts | 58° |
| 2026-04-25 23:27 | 30.44057 | -89.00162 | 15015 ft | 275 kts | 58° |
| 2026-04-25 23:27 | 30.44935 | -88.98197 | 14998 ft | 275 kts | 58° |
| 2026-04-25 23:27 | 30.45816 | -88.96233 | 14999 ft | 275 kts | 58° |
| 2026-04-25 23:28 | 30.49402 | -88.88214 | 14999 ft | 275 kts | 58° |
| 2026-04-25 23:29 | 30.50280 | -88.86248 | 15001 ft | 275 kts | 58° |
| 2026-04-25 23:29 | 30.51158 | -88.84282 | 15001 ft | 275 kts | 58° |
| 2026-04-25 23:29 | 30.52035 | -88.82316 | 14998 ft | 274 kts | 58° |
| 2026-04-25 23:29 | 30.52913 | -88.80347 | 15002 ft | 274 kts | 58° |
| 2026-04-25 23:30 | 30.53787 | -88.78387 | 15000 ft | 274 kts | 58° |
| 2026-04-25 23:30 | 30.54662 | -88.76422 | 15002 ft | 274 kts | 58° |
| 2026-04-25 23:30 | 30.55534 | -88.74462 | 15012 ft | 274 kts | 58° |
| 2026-04-25 23:30 | 30.56408 | -88.72500 | 15011 ft | 274 kts | 58° |
| 2026-04-25 23:31 | 30.57270 | -88.70561 | 15010 ft | 274 kts | 58° |
| 2026-04-25 23:31 | 30.58141 | -88.68601 | 15015 ft | 274 kts | 58° |
| 2026-04-25 23:31 | 30.59013 | -88.66640 | 15012 ft | 274 kts | 58° |
| 2026-04-25 23:31 | 30.59886 | -88.64674 | 15016 ft | 273 kts | 58° |
| 2026-04-25 23:32 | 30.60756 | -88.62713 | 15013 ft | 273 kts | 58° |
| 2026-04-25 23:32 | 30.61626 | -88.60752 | 15017 ft | 273 kts | 58° |
| 2026-04-25 23:32 | 30.62495 | -88.58793 | 15018 ft | 273 kts | 58° |
| 2026-04-25 23:32 | 30.63365 | -88.56831 | 15011 ft | 273 kts | 58° |
| 2026-04-25 23:33 | 30.64235 | -88.54865 | 15017 ft | 273 kts | 58° |
| 2026-04-25 23:33 | 30.65103 | -88.52906 | 15011 ft | 273 kts | 58° |
| 2026-04-25 23:33 | 30.65970 | -88.50945 | 15012 ft | 273 kts | 58° |
| 2026-04-25 23:33 | 30.66838 | -88.48984 | 15013 ft | 273 kts | 58° |
| 2026-04-25 23:34 | 30.67692 | -88.47052 | 15015 ft | 273 kts | 58° |
| 2026-04-25 23:34 | 30.68559 | -88.45089 | 15013 ft | 273 kts | 58° |
| 2026-04-25 23:34 | 30.69423 | -88.43131 | 15013 ft | 273 kts | 58° |
| 2026-04-25 23:34 | 30.70289 | -88.41169 | 15016 ft | 273 kts | 58° |
| 2026-04-25 23:35 | 30.71153 | -88.39211 | 15015 ft | 272 kts | 58° |
| 2026-04-25 23:35 | 30.72014 | -88.37250 | 15015 ft | 272 kts | 59° |
| 2026-04-25 23:35 | 30.72614 | -88.35153 | 15010 ft | 277 kts | 76° |
| 2026-04-25 23:35 | 30.72801 | -88.32920 | 15008 ft | 278 kts | 83° |
| 2026-04-25 23:36 | 30.72944 | -88.30653 | 14820 ft | 284 kts | 83° |
| 2026-04-25 23:36 | 30.73098 | -88.28347 | 14592 ft | 287 kts | 83° |
| 2026-04-25 23:36 | 30.73251 | -88.26027 | 14363 ft | 289 kts | 83° |
| 2026-04-25 23:36 | 30.73402 | -88.23703 | 14137 ft | 289 kts | 83° |
| 2026-04-25 23:37 | 30.73550 | -88.21413 | 13913 ft | 288 kts | 83° |
| 2026-04-25 23:37 | 30.73701 | -88.19093 | 13681 ft | 288 kts | 83° |
| 2026-04-25 23:37 | 30.73852 | -88.16774 | 13427 ft | 287 kts | 84° |
| 2026-04-25 23:37 | 30.74001 | -88.14456 | 13172 ft | 287 kts | 84° |
| 2026-04-25 23:38 | 30.74150 | -88.12148 | 12919 ft | 286 kts | 84° |
| 2026-04-25 23:38 | 30.74298 | -88.09847 | 12675 ft | 285 kts | 84° |
| 2026-04-25 23:38 | 30.74445 | -88.07548 | 12426 ft | 284 kts | 84° |
| 2026-04-25 23:38 | 30.74591 | -88.05261 | 12178 ft | 284 kts | 84° |
| 2026-04-25 23:39 | 30.74736 | -88.02979 | 11932 ft | 283 kts | 84° |
| 2026-04-25 23:39 | 30.74881 | -88.00704 | 11689 ft | 282 kts | 84° |
| 2026-04-25 23:39 | 30.75025 | -87.98434 | 11444 ft | 281 kts | 84° |
| 2026-04-25 23:39 | 30.75166 | -87.96198 | 11205 ft | 280 kts | 84° |
| 2026-04-25 23:40 | 30.75308 | -87.93941 | 11019 ft | 278 kts | 84° |
| 2026-04-25 23:40 | 30.75446 | -87.91731 | 11015 ft | 271 kts | 84° |
| 2026-04-25 23:40 | 30.75584 | -87.89549 | 11011 ft | 273 kts | 84° |
| 2026-04-25 23:40 | 30.75723 | -87.87335 | 11011 ft | 275 kts | 84° |
| 2026-04-25 23:41 | 30.75861 | -87.85112 | 11012 ft | 276 kts | 85° |
| 2026-04-25 23:41 | 30.75999 | -87.82884 | 11011 ft | 276 kts | 84° |
| 2026-04-25 23:41 | 30.76137 | -87.80653 | 11012 ft | 277 kts | 84° |
| 2026-04-25 23:41 | 30.76275 | -87.78423 | 11011 ft | 277 kts | 85° |
| 2026-04-25 23:42 | 30.76412 | -87.76192 | 11010 ft | 277 kts | 84° |
| 2026-04-25 23:42 | 30.76547 | -87.73993 | 11010 ft | 277 kts | 84° |
| 2026-04-25 23:42 | 30.76685 | -87.71760 | 11008 ft | 276 kts | 85° |
| 2026-04-25 23:42 | 30.76821 | -87.69537 | 11007 ft | 276 kts | 85° |
| 2026-04-25 23:43 | 30.76957 | -87.67305 | 11006 ft | 276 kts | 85° |
| 2026-04-25 23:43 | 30.77092 | -87.65076 | 11000 ft | 276 kts | 85° |
| 2026-04-25 23:43 | 30.77227 | -87.62845 | 11000 ft | 277 kts | 85° |
| 2026-04-25 23:43 | 30.77362 | -87.60616 | 11003 ft | 276 kts | 85° |
| 2026-04-25 23:44 | 30.77496 | -87.58386 | 11001 ft | 277 kts | 84° |
| 2026-04-25 23:44 | 30.77630 | -87.56157 | 11000 ft | 276 kts | 84° |
| 2026-04-25 23:44 | 30.77764 | -87.53928 | 10997 ft | 276 kts | 85° |
| 2026-04-25 23:44 | 30.77897 | -87.51700 | 10998 ft | 277 kts | 84° |
| 2026-04-25 23:45 | 30.78030 | -87.49476 | 10666 ft | 279 kts | 85° |
| 2026-04-25 23:45 | 30.78162 | -87.47244 | 10318 ft | 276 kts | 85° |
| 2026-04-25 23:45 | 30.78293 | -87.45022 | 9966 ft | 275 kts | 85° |
| 2026-04-25 23:45 | 30.78424 | -87.42816 | 9606 ft | 273 kts | 85° |
| 2026-04-25 23:46 | 30.78524 | -87.41102 | 9292 ft | 251 kts | 85° |
| 2026-04-25 23:46 | 30.78651 | -87.38970 | 8915 ft | 274 kts | 85° |
| 2026-04-25 23:46 | 30.78782 | -87.36727 | 8550 ft | 280 kts | 85° |
| 2026-04-25 23:46 | 30.78912 | -87.34463 | 8188 ft | 281 kts | 85° |
| 2026-04-25 23:47 | 30.78776 | -87.32204 | 7817 ft | 280 kts | 102° |
| 2026-04-25 23:47 | 30.78133 | -87.30110 | 7457 ft | 279 kts | 117° |
| 2026-04-25 23:47 | 30.77032 | -87.28271 | 7089 ft | 276 kts | 134° |
| 2026-04-25 23:47 | 30.75572 | -87.26849 | 6737 ft | 273 kts | 149° |
| 2026-04-25 23:48 | 30.73862 | -87.25927 | 6381 ft | 270 kts | 165° |
| 2026-04-25 23:48 | 30.72055 | -87.25423 | 6012 ft | 258 kts | 169° |
| 2026-04-25 23:48 | 30.70341 | -87.24965 | 5638 ft | 250 kts | 169° |
| 2026-04-25 23:48 | 30.68656 | -87.24510 | 5263 ft | 247 kts | 169° |
| 2026-04-25 23:49 | 30.66995 | -87.24065 | 5012 ft | 242 kts | 169° |
| 2026-04-25 23:49 | 30.65353 | -87.23624 | 4694 ft | 243 kts | 169° |
| 2026-04-25 23:49 | 30.63744 | -87.23192 | 4268 ft | 225 kts | 169° |
| 2026-04-25 23:49 | 30.62279 | -87.22804 | 3836 ft | 213 kts | 170° |
| 2026-04-25 23:50 | 30.60892 | -87.22435 | 3401 ft | 198 kts | 170° |
| 2026-04-25 23:50 | 30.59560 | -87.22079 | 2978 ft | 194 kts | 169° |
| 2026-04-25 23:50 | 30.58257 | -87.21728 | 2546 ft | 191 kts | 169° |
| 2026-04-25 23:50 | 30.56998 | -87.21391 | 2141 ft | 180 kts | 170° |
| 2026-04-25 23:51 | 30.55868 | -87.21086 | 1693 ft | 155 kts | 171° |
| 2026-04-25 23:51 | 30.54841 | -87.20818 | 1416 ft | 146 kts | 170° |
| 2026-04-25 23:51 | 30.53936 | -87.20570 | 1240 ft | 126 kts | 169° |
| 2026-04-25 23:51 | 30.53085 | -87.20348 | 1076 ft | 125 kts | 171° |
| 2026-04-25 23:52 | 30.52254 | -87.20127 | 921 ft | 122 kts | 169° |
| 2026-04-25 23:52 | 30.51428 | -87.19903 | 776 ft | 121 kts | 169° |
| 2026-04-25 23:52 | 30.50613 | -87.19684 | 632 ft | 121 kts | 166° |
| 2026-04-25 23:52 | 30.49815 | -87.19473 | 459 ft | 115 kts | 166° |
| 2026-04-25 23:53 | 30.49038 | -87.19270 | 338 ft | 114 kts | 165° |
| 2026-04-25 23:53 | 30.48269 | -87.19064 | 187 ft | 111 kts | 166° |
| 2026-04-25 23:53 | 30.47623 | -87.18887 | 115 ft | 77 kts | 167° |
| 2026-04-25 23:53 | 30.47221 | -87.18784 | 109 ft | 16 kts | 169° |
| 2026-04-25 23:54 | 30.47190 | -87.18685 | 109 ft | 19 kts | 78° |
| 2026-04-25 23:54 | 30.47194 | -87.18657 | 109 ft | 0 kts | 77° |
| 2026-04-25 23:54 | 30.47197 | -87.18643 | 109 ft | 8 kts | 77° |
| 2026-04-25 23:54 | 30.47212 | -87.18557 | 112 ft | 11 kts | 78° |
| 2026-04-25 23:55 | 30.47213 | -87.18479 | 114 ft | 11 kts | 132° |
| 2026-04-25 23:55 | 30.47130 | -87.18450 | 111 ft | 24 kts | 170° |